Time;durP1;ratioP1;P1;durP2;ratioP2;P2;SDS_P1;SDS_P2;PMS_P1;PMS_P2;Temp;Humidity;BMP_temperature;BMP_pressure;BME280_temperature;BME280_humidity;BME280_pressure;Samples;Min_cycle;Max_cycle;Signal;HPM_P1;HPM_P2
2021/07/26 00:01:50;;;;;;;7.70;3.35;;;17.80;99.90;;;;;;6307167;22;20013;-65
2021/07/26 00:04:15;;;;;;;8.52;3.92;;;17.80;99.90;;;;;;6279198;22;20368;-64
2021/07/26 00:06:43;;;;;;;9.43;3.58;;;17.70;99.90;;;;;;6306453;22;20078;-66
2021/07/26 00:09:08;;;;;;;5.90;3.67;;;17.70;99.90;;;;;;6306908;22;20373;-64
2021/07/26 00:11:34;;;;;;;6.32;3.60;;;17.70;99.90;;;;;;6306885;22;20045;-64
2021/07/26 00:14:00;;;;;;;7.03;3.50;;;17.70;99.90;;;;;;6306743;22;20120;-64
2021/07/26 00:16:25;;;;;;;4.78;3.03;;;17.70;99.90;;;;;;6306160;22;19995;-65
2021/07/26 00:18:51;;;;;;;11.38;3.05;;;17.70;99.90;;;;;;6306560;22;20004;-64
2021/07/26 00:21:17;;;;;;;5.80;3.25;;;17.70;99.90;;;;;;6306503;22;20053;-63
2021/07/26 00:23:43;;;;;;;4.82;2.97;;;17.70;99.90;;;;;;6306420;22;20003;-65
2021/07/26 00:26:09;;;;;;;6.88;3.58;;;17.70;99.90;;;;;;6305759;22;20536;-67
2021/07/26 00:28:35;;;;;;;7.50;3.75;;;17.70;99.90;;;;;;6306185;22;20074;-66
2021/07/26 00:31:00;;;;;;;6.30;3.03;;;17.80;99.90;;;;;;6306906;22;20344;-66
2021/07/26 00:34:07;;;;;;;9.38;3.40;;;17.80;99.90;;;;;;6306234;22;20045;-65
2021/07/26 00:36:38;;;;;;;6.72;3.67;;;17.80;99.90;;;;;;6306631;22;20007;-64
2021/07/26 00:39:05;;;;;;;9.38;3.63;;;17.90;99.90;;;;;;6306058;22;20007;-64
2021/07/26 00:41:31;;;;;;;6.70;2.95;;;17.90;99.90;;;;;;6305700;22;20484;-65
2021/07/26 00:43:57;;;;;;;8.02;3.30;;;17.90;99.90;;;;;;6306020;22;20011;-65
2021/07/26 00:46:23;;;;;;;5.03;3.05;;;17.90;99.90;;;;;;6304971;22;20007;-66
2021/07/26 00:48:48;;;;;;;5.85;3.55;;;17.90;99.90;;;;;;6306097;22;20074;-62
2021/07/26 00:51:14;;;;;;;5.90;3.70;;;18.00;99.90;;;;;;6306073;22;19996;-64
2021/07/26 00:53:40;;;;;;;4.25;2.95;;;18.00;99.90;;;;;;6305914;22;20006;-65
2021/07/26 00:56:07;;;;;;;11.38;3.30;;;18.00;99.90;;;;;;6305620;22;20108;-65
2021/07/26 00:58:34;;;;;;;8.10;3.70;;;18.00;99.90;;;;;;6305743;22;20003;-64
2021/07/26 01:01:00;;;;;;;6.05;3.70;;;18.00;99.90;;;;;;6306028;22;20003;-65
2021/07/26 01:03:26;;;;;;;8.30;3.75;;;18.00;99.90;;;;;;6305971;22;20027;-66
2021/07/26 01:05:52;;;;;;;6.50;3.70;;;18.00;99.90;;;;;;6305536;22;20034;-66
2021/07/26 01:08:17;;;;;;;7.78;3.05;;;17.90;99.90;;;;;;6305870;22;20019;-63
2021/07/26 01:10:43;;;;;;;8.05;4.38;;;17.90;99.90;;;;;;6305923;22;20006;-64
2021/07/26 01:13:08;;;;;;;7.70;3.88;;;17.80;99.90;;;;;;6305731;22;20435;-64
2021/07/26 01:15:34;;;;;;;6.38;3.42;;;17.70;99.90;;;;;;6305048;22;20316;-63
2021/07/26 01:18:24;;;;;;;8.38;3.83;;;17.70;99.90;;;;;;6305545;22;20423;-64
2021/07/26 01:20:55;;;;;;;4.28;3.20;;;17.70;99.90;;;;;;6305701;22;20108;-63
2021/07/26 01:23:21;;;;;;;5.07;3.55;;;17.60;99.90;;;;;;6305699;22;20003;-66
2021/07/26 01:25:47;;;;;;;6.40;3.45;;;17.60;99.90;;;;;;6305229;22;20038;-65
2021/07/26 01:28:15;;;;;;;9.43;3.97;;;17.60;99.90;;;;;;6305268;22;20003;-63
2021/07/26 01:30:42;;;;;;;15.45;4.07;;;17.50;99.90;;;;;;6305799;22;20003;-64
2021/07/26 01:33:09;;;;;;;6.25;3.22;;;17.50;99.90;;;;;;6305342;22;20010;-65
2021/07/26 01:35:35;;;;;;;11.45;3.53;;;17.40;99.90;;;;;;6306068;22;20027;-64
2021/07/26 01:38:00;;;;;;;5.20;3.85;;;17.50;99.90;;;;;;6305500;22;20052;-63
2021/07/26 01:40:26;;;;;;;10.85;3.55;;;17.40;99.90;;;;;;6305213;22;20030;-64
2021/07/26 01:43:00;;;;;;;6.93;4.18;;;17.30;99.90;;;;;;6305703;22;20006;-64
2021/07/26 01:45:26;;;;;;;7.22;4.05;;;17.30;99.90;;;;;;6304922;22;20485;-64
2021/07/26 01:47:55;;;;;;;5.60;3.80;;;17.30;99.90;;;;;;6305419;22;19999;-64
2021/07/26 01:50:21;;;;;;;5.75;4.38;;;17.20;99.90;;;;;;6305628;22;20497;-65
2021/07/26 01:52:47;;;;;;;10.07;3.67;;;17.20;99.90;;;;;;6305140;22;20006;-65
2021/07/26 01:55:13;;;;;;;6.05;3.70;;;17.20;99.90;;;;;;6305363;22;19999;-66
2021/07/26 01:57:39;;;;;;;7.40;3.40;;;17.10;99.90;;;;;;6305518;22;20465;-66
2021/07/26 02:00:05;;;;;;;7.93;3.72;;;17.00;99.90;;;;;;6305226;22;20438;-65
2021/07/26 02:02:31;;;;;;;7.75;4.03;;;17.00;99.90;;;;;;6305264;22;20432;-65
2021/07/26 02:05:00;;;;;;;8.48;4.07;;;17.00;99.90;;;;;;6305322;22;20022;-66
2021/07/26 02:07:26;;;;;;;12.90;4.25;;;16.90;99.90;;;;;;6277569;22;20007;-64
2021/07/26 02:09:52;;;;;;;6.38;3.55;;;17.00;99.90;;;;;;6305084;22;20125;-64
2021/07/26 02:12:18;;;;;;;9.00;3.88;;;17.00;99.90;;;;;;6305412;22;20006;-66
2021/07/26 02:14:44;;;;;;;8.82;4.20;;;17.00;99.90;;;;;;6305301;22;19999;-65
2021/07/26 02:17:09;;;;;;;6.13;3.67;;;17.00;99.90;;;;;;6304840;22;20334;-65
2021/07/26 02:19:35;;;;;;;12.00;4.22;;;16.90;99.90;;;;;;6305375;22;20022;-65
2021/07/26 02:22:01;;;;;;;13.85;4.25;;;16.90;99.90;;;;;;6304995;22;20007;-66
2021/07/26 02:24:26;;;;;;;8.40;4.13;;;16.90;99.90;;;;;;6277926;22;20033;-63
2021/07/26 02:26:52;;;;;;;6.90;4.05;;;17.00;99.90;;;;;;6304463;22;20042;-64
2021/07/26 02:29:17;;;;;;;9.77;4.72;;;17.00;99.90;;;;;;6305074;22;20008;-65
2021/07/26 02:31:43;;;;;;;15.10;5.18;;;17.00;99.90;;;;;;6305212;22;20000;-64
2021/07/26 02:34:09;;;;;;;10.00;4.68;;;17.00;99.90;;;;;;6277859;22;20097;-65
2021/07/26 02:36:34;;;;;;;6.55;4.22;;;17.00;99.90;;;;;;6304999;22;19999;-65
2021/07/26 02:39:00;;;;;;;8.32;3.67;;;17.00;99.90;;;;;;6305116;22;20074;-64
2021/07/26 02:41:26;;;;;;;9.02;4.30;;;17.00;99.90;;;;;;6305236;22;20041;-64
2021/07/26 02:43:51;;;;;;;9.43;4.60;;;17.00;99.90;;;;;;6305021;22;20010;-64
2021/07/26 02:46:17;;;;;;;7.68;4.40;;;17.00;99.90;;;;;;6304363;22;20488;-66
2021/07/26 02:48:42;;;;;;;8.90;4.25;;;16.90;99.90;;;;;;6305140;22;20003;-65
2021/07/26 02:51:08;;;;;;;10.60;4.55;;;17.00;99.90;;;;;;6304926;22;20041;-65
2021/07/26 02:53:34;;;;;;;8.50;4.72;;;17.00;99.90;;;;;;6304681;22;20000;-65
2021/07/26 02:55:59;;;;;;;9.60;4.57;;;16.90;99.90;;;;;;6304820;22;20000;-65
2021/07/26 02:58:25;;;;;;;11.15;4.38;;;16.90;99.90;;;;;;6305298;22;20436;-65
2021/07/26 03:00:51;;;;;;;11.88;4.82;;;16.90;99.90;;;;;;6304923;22;20030;-65
2021/07/26 03:03:16;;;;;;;11.77;4.93;;;16.80;99.90;;;;;;6303879;22;20007;-66
2021/07/26 03:05:42;;;;;;;9.65;4.55;;;16.80;99.90;;;;;;6303518;22;20007;-66
2021/07/26 03:08:08;;;;;;;9.63;4.75;;;16.80;99.90;;;;;;6304634;22;20347;-65
2021/07/26 03:10:33;;;;;;;9.30;4.65;;;16.90;99.90;;;;;;6305024;22;20313;-64
2021/07/26 03:12:59;;;;;;;13.02;5.47;;;16.80;99.90;;;;;;6305063;22;19999;-64
2021/07/26 03:15:25;;;;;;;11.88;5.60;;;16.90;99.90;;;;;;6304586;22;20069;-64
2021/07/26 03:17:50;;;;;;;11.18;5.25;;;16.90;99.90;;;;;;6304702;22;20082;-63
2021/07/26 03:20:16;;;;;;;9.13;4.68;;;16.90;99.90;;;;;;6304753;22;20003;-64
2021/07/26 03:22:57;;;;;;;12.40;5.57;;;16.90;99.90;;;;;;6304874;22;20007;-64
2021/07/26 03:25:23;;;;;;;11.35;5.45;;;16.90;99.90;;;;;;6304614;22;20010;-64
2021/07/26 03:27:49;;;;;;;11.45;5.65;;;16.90;99.90;;;;;;6306151;22;20007;-64
2021/07/26 03:30:16;;;;;;;9.95;5.18;;;16.90;99.90;;;;;;6305401;22;20003;-66
2021/07/26 03:32:42;;;;;;;7.50;4.93;;;16.90;99.90;;;;;;6306166;22;20071;-65
2021/07/26 03:35:08;;;;;;;12.98;5.28;;;16.90;99.90;;;;;;6306673;22;20003;-63
2021/07/26 03:37:34;;;;;;;13.23;5.63;;;17.00;99.90;;;;;;6307230;22;20371;-66
2021/07/26 03:39:59;;;;;;;8.93;4.93;;;17.00;99.90;;;;;;6305128;22;20015;-64
2021/07/26 03:42:25;;;;;;;10.57;5.57;;;17.00;99.90;;;;;;6306312;22;20007;-64
2021/07/26 03:44:50;;;;;;;13.38;5.50;;;17.00;99.90;;;;;;6306454;22;20003;-64
2021/07/26 03:47:16;;;;;;;14.00;5.38;;;17.00;99.90;;;;;;6306654;22;20070;-66
2021/07/26 03:49:41;;;;;;;10.07;5.43;;;17.00;99.90;;;;;;6306663;22;19995;-65
2021/07/26 03:52:07;;;;;;;10.60;5.10;;;16.90;99.90;;;;;;6305733;22;20402;-65
2021/07/26 03:54:33;;;;;;;6.90;4.93;;;16.90;99.90;;;;;;6306853;22;20002;-66
2021/07/26 03:56:58;;;;;;;9.82;4.90;;;16.90;99.90;;;;;;6305436;22;20316;-65
2021/07/26 03:59:25;;;;;;;9.80;5.35;;;16.90;99.90;;;;;;6306871;22;20369;-66
2021/07/26 04:01:54;;;;;;;12.10;5.55;;;16.90;99.90;;;;;;6306816;22;19999;-65
2021/07/26 04:04:19;;;;;;;7.75;5.50;;;16.90;99.90;;;;;;6306227;22;19999;-66
2021/07/26 04:06:49;;;;;;;10.75;4.90;;;16.90;99.90;;;;;;6306260;22;20078;-64
2021/07/26 04:09:15;;;;;;;11.20;5.78;;;16.90;99.90;;;;;;6306491;22;20478;-67
2021/07/26 04:11:41;;;;;;;11.27;5.97;;;16.90;99.90;;;;;;6306174;22;19996;-64
2021/07/26 04:14:09;;;;;;;17.02;6.05;;;16.90;99.90;;;;;;6306699;22;20034;-65
2021/07/26 04:16:34;;;;;;;8.82;5.03;;;16.90;99.90;;;;;;6305529;22;19995;-65
2021/07/26 04:19:02;;;;;;;12.13;6.18;;;16.90;99.90;;;;;;6306186;22;20018;-66
2021/07/26 04:21:32;;;;;;;13.20;6.00;;;16.90;99.90;;;;;;6306422;22;20056;-65
2021/07/26 04:23:59;;;;;;;7.80;4.88;;;16.90;99.90;;;;;;6306231;22;20267;-64
2021/07/26 04:26:25;;;;;;;13.80;5.60;;;16.80;99.90;;;;;;6306232;22;20380;-64
2021/07/26 04:28:51;;;;;;;7.55;4.55;;;16.70;99.90;;;;;;6306146;22;20031;-66
2021/07/26 04:31:16;;;;;;;8.35;5.18;;;16.80;99.90;;;;;;6306595;22;20066;-67
2021/07/26 04:33:42;;;;;;;7.85;5.07;;;16.90;99.90;;;;;;6305754;22;20473;-64
2021/07/26 04:36:07;;;;;;;8.43;5.07;;;16.90;99.90;;;;;;6305804;22;20021;-64
2021/07/26 04:41:06;;;;;;;7.85;4.95;;;16.90;99.90;;;;;;6305035;22;20041;-56
2021/07/26 04:43:34;;;;;;;10.20;4.65;;;17.00;99.90;;;;;;6305674;22;19995;-57
2021/07/26 04:46:00;;;;;;;16.08;5.95;;;17.00;99.90;;;;;;6277363;22;20048;-58
2021/07/26 04:48:25;;;;;;;10.55;5.10;;;17.10;99.90;;;;;;6305519;22;20334;-57
2021/07/26 04:50:51;;;;;;;8.02;4.82;;;17.10;99.90;;;;;;6273548;22;20140;-60
2021/07/26 04:53:17;;;;;;;15.35;6.22;;;17.20;99.90;;;;;;6273863;22;20069;-61
2021/07/26 04:55:42;;;;;;;8.35;4.75;;;17.20;99.90;;;;;;6274322;22;20462;-60
2021/07/26 04:58:08;;;;;;;10.45;5.10;;;17.30;99.90;;;;;;6275296;22;20054;-60
2021/07/26 05:00:33;;;;;;;10.25;5.78;;;17.30;99.90;;;;;;6274647;22;20003;-61
2021/07/26 05:02:59;;;;;;;8.73;4.63;;;17.40;99.90;;;;;;6274375;22;20078;-61
2021/07/26 05:05:25;;;;;;;7.47;4.85;;;17.40;99.90;;;;;;6274781;22;20008;-58
2021/07/26 05:07:51;;;;;;;8.70;4.97;;;17.40;99.90;;;;;;6273954;22;20274;-59
2021/07/26 05:10:17;;;;;;;9.85;4.97;;;17.50;99.90;;;;;;6273938;22;19999;-59
2021/07/26 05:12:42;;;;;;;7.30;4.82;;;17.60;99.90;;;;;;6274306;22;20083;-60
2021/07/26 05:15:09;;;;;;;14.80;5.68;;;17.60;99.90;;;;;;6274416;22;20339;-59
2021/07/26 05:17:35;;;;;;;7.80;4.57;;;17.70;99.90;;;;;;6274552;22;20000;-59
2021/07/26 05:20:01;;;;;;;12.27;5.15;;;17.80;99.90;;;;;;6274627;22;20078;-59
2021/07/26 05:22:26;;;;;;;9.82;5.07;;;17.90;99.90;;;;;;6274812;22;20368;-54
2021/07/26 05:24:52;;;;;;;9.20;4.93;;;18.00;99.90;;;;;;6274665;22;20008;-61
2021/07/26 05:27:18;;;;;;;7.43;4.57;;;18.00;99.90;;;;;;6273720;22;20008;-58
2021/07/26 05:29:43;;;;;;;7.72;5.63;;;18.10;99.90;;;;;;6274637;22;20080;-57
2021/07/26 05:32:09;;;;;;;8.90;5.25;;;18.20;99.90;;;;;;6273626;22;20339;-59
2021/07/26 05:34:35;;;;;;;6.97;5.07;;;18.30;99.90;;;;;;6274599;22;19999;-59
2021/07/26 05:37:01;;;;;;;7.47;5.25;;;18.30;99.90;;;;;;6247540;22;20071;-56
2021/07/26 05:39:27;;;;;;;11.30;5.55;;;18.40;99.90;;;;;;6274470;22;20008;-60
2021/07/26 05:41:54;;;;;;;11.82;6.25;;;18.50;99.90;;;;;;6273615;22;20018;-58
2021/07/26 05:44:20;;;;;;;12.65;6.00;;;18.50;99.90;;;;;;6273843;22;20010;-58
2021/07/26 05:46:45;;;;;;;10.43;6.03;;;18.60;99.90;;;;;;6274517;22;20003;-58
2021/07/26 05:49:11;;;;;;;11.57;6.90;;;18.60;99.90;;;;;;6273927;22;20075;-58
2021/07/26 05:51:37;;;;;;;15.25;7.15;;;18.70;99.90;;;;;;6273736;22;20423;-60
2021/07/26 05:54:04;;;;;;;13.25;6.57;;;18.80;99.90;;;;;;6274171;22;20002;-60
2021/07/26 05:56:30;;;;;;;13.63;7.10;;;18.80;99.90;;;;;;6272952;22;20003;-57
2021/07/26 05:58:57;;;;;;;11.52;6.68;;;19.00;99.90;;;;;;6274298;22;19995;-61
2021/07/26 06:01:35;;;;;;;15.63;6.80;;;19.00;99.90;;;;;;6273938;22;19999;-57
2021/07/26 06:04:01;;;;;;;9.15;5.97;;;19.20;99.90;;;;;;6273481;22;20458;-59
2021/07/26 06:06:26;;;;;;;12.80;6.25;;;19.30;99.90;;;;;;6274067;22;20075;-57
2021/07/26 06:08:52;;;;;;;11.90;5.80;;;19.40;99.90;;;;;;6247177;22;20312;-57
2021/07/26 06:11:17;;;;;;;10.85;6.00;;;19.50;99.90;;;;;;6273318;22;19999;-58
2021/07/26 06:13:43;;;;;;;8.80;5.57;;;19.60;99.90;;;;;;6273366;22;20033;-57
2021/07/26 06:16:08;;;;;;;7.47;5.10;;;19.70;99.90;;;;;;6273198;22;20098;-58
2021/07/26 06:18:35;;;;;;;12.95;5.82;;;19.80;99.90;;;;;;6273884;22;20118;-58
2021/07/26 06:21:06;;;;;;;11.20;5.35;;;19.90;99.90;;;;;;6272951;22;20007;-57
2021/07/26 06:23:32;;;;;;;7.60;5.15;;;19.90;99.90;;;;;;6273892;22;20011;-57
2021/07/26 06:25:57;;;;;;;8.80;4.93;;;19.90;99.90;;;;;;6274138;22;20008;-58
2021/07/26 06:28:23;;;;;;;7.95;4.38;;;19.80;99.90;;;;;;6273774;22;20477;-56
2021/07/26 06:30:48;;;;;;;9.38;4.85;;;19.90;99.90;;;;;;6270734;22;20020;-59
2021/07/26 06:33:14;;;;;;;8.30;4.75;;;19.80;99.90;;;;;;6268712;22;20090;-58
2021/07/26 06:35:39;;;;;;;6.60;4.07;;;19.80;99.90;;;;;;6272165;22;20085;-54
2021/07/26 06:38:05;;;;;;;13.65;4.80;;;19.80;99.90;;;;;;6273495;22;20035;-56
2021/07/26 06:40:31;;;;;;;8.70;4.47;;;19.70;99.90;;;;;;6272401;22;20154;-57
2021/07/26 06:42:57;;;;;;;11.80;5.32;;;19.70;99.90;;;;;;6272332;22;20422;-57
2021/07/26 06:45:23;;;;;;;9.07;5.03;;;19.60;99.90;;;;;;6245933;22;19996;-57
2021/07/26 06:47:49;;;;;;;12.50;4.45;;;19.60;99.90;;;;;;6274361;22;20003;-57
2021/07/26 06:50:15;;;;;;;10.30;4.75;;;19.60;99.90;;;;;;6273506;22;20031;-58
2021/07/26 06:52:40;;;;;;;16.90;5.25;;;19.60;99.90;;;;;;6271626;22;20000;-57
2021/07/26 06:55:06;;;;;;;8.27;5.22;;;19.60;99.90;;;;;;6272859;22;20000;-54
2021/07/26 06:57:32;;;;;;;11.32;4.68;;;19.70;99.90;;;;;;6273143;22;20015;-59
2021/07/26 06:59:57;;;;;;;11.60;5.25;;;19.60;99.90;;;;;;6272604;22;20087;-60
2021/07/26 07:02:23;;;;;;;12.93;5.85;;;19.60;99.90;;;;;;6245583;22;20102;-59
2021/07/26 07:04:48;;;;;;;6.60;3.70;;;19.70;99.90;;;;;;6270705;22;20007;-59
2021/07/26 07:07:14;;;;;;;10.57;4.72;;;19.70;99.90;;;;;;6275386;22;20014;-61
2021/07/26 07:09:39;;;;;;;14.93;3.97;;;19.60;99.90;;;;;;6274101;22;20075;-62
2021/07/26 07:12:06;;;;;;;11.77;4.03;;;19.60;99.90;;;;;;6275148;22;20378;-60
2021/07/26 07:14:34;;;;;;;7.70;4.18;;;19.70;99.90;;;;;;6274307;22;20374;-60
2021/07/26 07:17:00;;;;;;;7.13;4.47;;;19.60;99.90;;;;;;6275032;22;20063;-60
2021/07/26 07:19:25;;;;;;;8.95;4.32;;;19.70;99.90;;;;;;6276059;22;20035;-57
2021/07/26 07:21:51;;;;;;;9.18;3.83;;;19.70;99.90;;;;;;6275392;22;20003;-61
2021/07/26 07:24:16;;;;;;;6.63;4.63;;;19.70;99.90;;;;;;6275841;22;20011;-60
2021/07/26 07:26:42;;;;;;;8.65;4.10;;;19.80;99.90;;;;;;6274712;22;20007;-60
2021/07/26 07:29:07;;;;;;;7.50;3.88;;;19.90;99.90;;;;;;6273835;22;20004;-59
2021/07/26 07:31:37;;;;;;;6.47;4.45;;;19.90;99.90;;;;;;6275082;22;19996;-63
2021/07/26 07:34:04;;;;;;;10.75;4.47;;;20.00;99.90;;;;;;6275317;22;20070;-60
2021/07/26 07:36:29;;;;;;;7.78;4.75;;;20.20;99.90;;;;;;6275792;22;20000;-62
2021/07/26 07:38:59;;;;;;;5.00;4.15;;;20.30;99.90;;;;;;6275327;22;20006;-62
2021/07/26 07:41:25;;;;;;;5.80;3.88;;;20.50;99.90;;;;;;6274663;22;20435;-60
2021/07/26 07:43:51;;;;;;;6.13;3.88;;;20.70;99.90;;;;;;6275677;22;20002;-60
2021/07/26 07:46:19;;;;;;;7.50;4.30;;;21.00;99.90;;;;;;6275369;22;20347;-60
2021/07/26 07:48:45;;;;;;;7.40;3.90;;;21.20;99.90;;;;;;6275933;22;20007;-62
2021/07/26 07:51:11;;;;;;;6.05;4.22;;;21.30;99.90;;;;;;6274288;22;20006;-60
2021/07/26 07:53:37;;;;;;;9.00;4.53;;;21.20;99.90;;;;;;6275342;22;19996;-62
2021/07/26 07:56:04;;;;;;;5.78;4.75;;;21.30;99.90;;;;;;6275211;22;19999;-60
2021/07/26 07:58:29;;;;;;;5.50;4.00;;;21.30;99.90;;;;;;6274496;22;20342;-64
2021/07/26 08:00:56;;;;;;;7.18;4.10;;;21.30;99.90;;;;;;6270088;22;20027;-63
2021/07/26 08:03:22;;;;;;;8.93;4.63;;;21.40;99.90;;;;;;6272117;22;20003;-60
2021/07/26 08:05:48;;;;;;;9.40;3.80;;;21.40;99.90;;;;;;6274554;22;20000;-61
2021/07/26 08:08:14;;;;;;;8.52;4.20;;;21.40;99.90;;;;;;6275279;22;20076;-62
2021/07/26 08:10:40;;;;;;;6.75;3.50;;;21.40;99.90;;;;;;6273672;22;20073;-62
2021/07/26 08:13:05;;;;;;;5.25;4.20;;;21.50;99.90;;;;;;6274566;22;20071;-60
2021/07/26 08:15:31;;;;;;;12.82;5.28;;;21.50;99.90;;;;;;6274804;22;20079;-60
2021/07/26 08:17:57;;;;;;;7.75;3.97;;;21.60;99.90;;;;;;6275129;22;20007;-61
2021/07/26 08:20:22;;;;;;;8.50;4.45;;;21.80;99.90;;;;;;6274392;22;20000;-60
2021/07/26 08:22:48;;;;;;;5.38;3.67;;;21.90;99.90;;;;;;6273818;22;20007;-61
2021/07/26 08:25:15;;;;;;;8.52;4.55;;;22.10;99.90;;;;;;6246672;22;20042;-62
2021/07/26 08:27:52;;;;;;;6.80;4.10;;;22.10;99.90;;;;;;6273951;22;20011;-62
2021/07/26 08:30:39;;;;;;;8.82;3.92;;;22.20;99.90;;;;;;6275105;22;20397;-61
2021/07/26 08:33:04;;;;;;;9.63;3.65;;;22.30;99.90;;;;;;6247755;22;20342;-60
2021/07/26 08:35:41;;;;;;;5.75;3.40;;;22.30;99.90;;;;;;6274754;22;20024;-61
2021/07/26 08:38:07;;;;;;;4.78;3.30;;;22.40;99.90;;;;;;6275022;22;20004;-59
2021/07/26 08:40:34;;;;;;;4.85;2.85;;;22.50;99.90;;;;;;6274291;22;20402;-60
2021/07/26 08:43:04;;;;;;;8.88;3.60;;;22.60;99.90;;;;;;6274216;22;20339;-57
2021/07/26 08:45:33;;;;;;;15.27;3.45;;;22.70;99.90;;;;;;6274365;22;20060;-59
2021/07/26 08:48:04;;;;;;;7.30;3.00;;;22.90;99.90;;;;;;6274425;22;20004;-61
2021/07/26 08:50:32;;;;;;;9.25;2.80;;;23.10;99.90;;;;;;6272854;22;20467;-60
2021/07/26 08:52:58;;;;;;;11.95;2.88;;;23.10;99.90;;;;;;6274217;22;19999;-60
2021/07/26 08:55:26;;;;;;;7.90;2.50;;;23.00;99.90;;;;;;6273408;22;20000;-61
2021/07/26 08:57:51;;;;;;;3.22;2.40;;;23.00;99.90;;;;;;6274727;22;20394;-62
2021/07/26 09:00:18;;;;;;;3.38;2.42;;;23.10;99.90;;;;;;6274591;22;20010;-62
2021/07/26 09:02:44;;;;;;;3.22;2.10;;;23.20;99.90;;;;;;6274872;22;20003;-62
2021/07/26 09:05:12;;;;;;;7.30;2.58;;;23.20;99.90;;;;;;6274393;22;20008;-60
2021/07/26 09:07:40;;;;;;;6.25;2.47;;;23.20;99.90;;;;;;6274724;22;20011;-62
2021/07/26 09:10:26;;;;;;;3.47;2.67;;;23.20;99.90;;;;;;6274585;22;20111;-62
2021/07/26 09:12:53;;;;;;;4.47;2.33;;;23.10;99.90;;;;;;6273976;22;20093;-65
2021/07/26 09:15:23;;;;;;;6.55;2.65;;;23.00;99.90;;;;;;6274191;22;20000;-61
2021/07/26 09:17:49;;;;;;;3.67;2.53;;;23.00;99.90;;;;;;6274643;22;20007;-57
2021/07/26 09:20:24;;;;;;;9.38;2.65;;;23.00;99.90;;;;;;6274531;22;20061;-60
2021/07/26 09:22:51;;;;;;;3.88;2.22;;;22.90;99.90;;;;;;6274742;22;20018;-60
2021/07/26 09:25:19;;;;;;;10.35;2.65;;;22.90;99.90;;;;;;6274329;22;20003;-60
2021/07/26 09:28:03;;;;;;;2.95;2.17;;;22.80;99.90;;;;;;6274502;22;20007;-63
2021/07/26 09:30:48;;;;;;;3.20;1.83;;;22.80;99.90;;;;;;6274773;22;20006;-62
2021/07/26 09:33:34;;;;;;;4.63;2.65;;;22.80;99.90;;;;;;6274636;22;20241;-60
2021/07/26 09:36:19;;;;;;;3.90;2.33;;;22.70;99.90;;;;;;6273290;22;20420;-62
2021/07/26 09:38:56;;;;;;;3.67;2.25;;;22.60;99.90;;;;;;6273850;22;20007;-58
2021/07/26 09:41:45;;;;;;;3.58;2.35;;;22.70;99.90;;;;;;6273770;22;20086;-59
2021/07/26 09:44:11;;;;;;;6.68;2.65;;;22.70;99.90;;;;;;6274356;22;20078;-61
2021/07/26 09:46:40;;;;;;;4.22;3.17;;;22.60;99.90;;;;;;6273866;22;20003;-62
2021/07/26 09:49:19;;;;;;;3.10;2.40;;;22.60;99.90;;;;;;6274163;22;20458;-63
2021/07/26 09:52:08;;;;;;;4.90;2.53;;;22.70;99.90;;;;;;6274222;22;20000;-62
2021/07/26 09:54:41;;;;;;;2.60;2.30;;;22.70;99.90;;;;;;6274280;22;19996;-63
2021/07/26 09:57:23;;;;;;;4.45;2.45;;;22.80;99.90;;;;;;6274872;22;20073;-61
2021/07/26 09:59:56;;;;;;;3.97;2.40;;;23.00;99.90;;;;;;6274513;22;20005;-62
2021/07/26 10:02:26;;;;;;;3.90;2.40;;;23.30;99.90;;;;;;6247943;22;20028;-63
2021/07/26 10:04:52;;;;;;;6.07;2.60;;;23.40;99.90;;;;;;6273987;22;20038;-62
2021/07/26 10:07:19;;;;;;;8.70;2.50;;;23.40;99.90;;;;;;6273806;22;20004;-62
2021/07/26 10:09:46;;;;;;;2.67;2.20;;;23.50;99.90;;;;;;6274376;22;19991;-62
2021/07/26 10:12:18;;;;;;;6.03;2.50;;;23.70;99.90;;;;;;6273708;22;20332;-60
2021/07/26 10:14:46;;;;;;;4.55;2.40;;;23.80;99.90;;;;;;6274567;22;20011;-60
2021/07/26 10:17:13;;;;;;;5.18;2.60;;;23.90;99.90;;;;;;6273433;22;20440;-60
2021/07/26 10:19:38;;;;;;;2.67;1.80;;;24.00;99.90;;;;;;6274017;22;20134;-58
2021/07/26 10:22:08;;;;;;;5.40;2.65;;;23.90;99.90;;;;;;6274452;22;20028;-61
2021/07/26 10:24:56;;;;;;;4.80;2.40;;;24.00;99.90;;;;;;6273786;22;20322;-62
2021/07/26 10:27:27;;;;;;;4.05;2.10;;;24.10;99.90;;;;;;6271736;22;20018;-62
2021/07/26 10:29:57;;;;;;;4.18;2.17;;;24.30;99.90;;;;;;6273338;22;20034;-61
2021/07/26 10:32:32;;;;;;;3.75;2.08;;;24.30;99.90;;;;;;6273922;22;20499;-62
2021/07/26 10:34:59;;;;;;;4.38;2.17;;;24.50;99.90;;;;;;6272718;22;20379;-63
2021/07/26 10:37:40;;;;;;;3.67;2.03;;;24.50;99.90;;;;;;6273096;22;20113;-63
2021/07/26 10:40:28;;;;;;;4.68;2.40;;;24.50;99.90;;;;;;6270255;22;20012;-61
2021/07/26 10:42:58;;;;;;;5.28;2.72;;;24.50;99.90;;;;;;6296230;22;20362;-62
2021/07/26 10:45:35;;;;;;;3.30;2.22;;;24.40;99.90;;;;;;6303485;22;19999;-62
2021/07/26 10:48:20;;;;;;;5.22;2.22;;;24.30;99.90;;;;;;6305121;22;20437;-61
2021/07/26 10:50:46;;;;;;;;;;;24.30;99.90;;;;;;6304651;22;20003;-61
2021/07/26 10:53:32;;;;;;;5.30;2.10;;;24.60;99.90;;;;;;6304797;22;19926;-62
2021/07/26 10:56:03;;;;;;;4.18;2.42;;;25.10;99.90;;;;;;6301955;22;20003;-62
2021/07/26 10:58:41;;;;;;;3.30;2.13;;;24.90;99.90;;;;;;6304135;22;19999;-63
2021/07/26 11:01:25;;;;;;;5.53;2.53;;;24.80;99.90;;;;;;6304061;22;20034;-62
2021/07/26 11:03:55;;;;;;;5.35;2.50;;;24.60;99.90;;;;;;6303698;22;20007;-63
2021/07/26 11:06:36;;;;;;;3.20;2.40;;;24.60;99.90;;;;;;6303770;22;20030;-61
2021/07/26 11:09:20;;;;;;;3.22;2.05;;;24.50;99.90;;;;;;6304288;22;20003;-63
2021/07/26 11:11:47;;;;;;;4.50;2.60;;;24.60;99.90;;;;;;6303819;22;20004;-62
2021/07/26 11:14:14;;;;;;;4.28;2.13;;;24.80;99.90;;;;;;6303948;22;20312;-63
2021/07/26 11:16:49;;;;;;;6.28;2.42;;;25.00;99.90;;;;;;6303097;22;20030;-61
2021/07/26 11:19:34;;;;;;;4.07;2.22;;;25.00;99.90;;;;;;6303822;22;20320;-62
2021/07/26 11:22:00;;;;;;;3.30;2.80;;;25.10;99.90;;;;;;6303929;22;20021;-62
2021/07/26 11:24:42;;;;;;;4.18;1.98;;;25.20;99.90;;;;;;6304371;22;20070;-62
2021/07/26 11:27:09;;;;;;;2.88;1.90;;;25.10;99.90;;;;;;6303062;22;20007;-60
2021/07/26 11:29:35;;;;;;;13.13;2.55;;;25.00;99.90;;;;;;6303346;22;20023;-64
2021/07/26 11:32:01;;;;;;;5.97;2.30;;;25.20;99.90;;;;;;6304342;22;20031;-63
2021/07/26 11:34:35;;;;;;;3.85;1.92;;;25.60;99.90;;;;;;6276731;22;20061;-62
2021/07/26 11:37:02;;;;;;;4.10;2.30;;;25.60;99.90;;;;;;6304542;22;20338;-61
2021/07/26 11:39:49;;;;;;;7.78;2.60;;;25.80;99.90;;;;;;6304154;22;20006;-60
2021/07/26 11:42:18;;;;;;;4.38;2.72;;;26.00;99.90;;;;;;6303894;22;20282;-60
2021/07/26 11:44:46;;;;;;;4.32;2.03;;;26.10;99.90;;;;;;6276810;22;20011;-60
2021/07/26 11:47:13;;;;;;;5.60;2.10;;;26.30;99.90;;;;;;6304436;22;20007;-61
2021/07/26 11:49:49;;;;;;;5.60;2.45;;;26.30;99.90;;;;;;6306051;22;20027;-59
2021/07/26 11:52:16;;;;;;;3.10;2.15;;;26.10;99.90;;;;;;6306007;22;20003;-60
2021/07/26 11:54:41;;;;;;;5.03;3.10;;;25.70;99.90;;;;;;6305951;22;19995;-61
2021/07/26 11:57:10;;;;;;;8.43;3.28;;;25.60;99.90;;;;;;6306009;22;20003;-60
2021/07/26 11:59:37;;;;;;;6.85;4.60;;;25.90;99.90;;;;;;6305715;22;20007;-60
2021/07/26 12:02:10;;;;;;;3.75;2.63;;;26.60;99.90;;;;;;6306000;22;20007;-60
2021/07/26 12:04:36;;;;;;;2.55;2.10;;;27.00;99.90;;;;;;6305090;22;20027;-60
2021/07/26 12:07:04;;;;;;;5.55;1.70;;;27.30;99.90;;;;;;6277940;22;20358;-62
2021/07/26 12:09:30;;;;;;;3.38;2.20;;;27.30;99.90;;;;;;6305074;22;19999;-61
2021/07/26 12:12:10;;;;;;;5.63;2.35;;;27.00;99.90;;;;;;6305892;22;20388;-61
2021/07/26 12:14:37;;;;;;;5.00;2.55;;;27.00;99.90;;;;;;6304367;22;20608;-62
2021/07/26 12:17:04;;;;;;;2.88;2.20;;;27.30;99.90;;;;;;6305652;22;20228;-61
2021/07/26 12:19:31;;;;;;;3.55;1.90;;;27.30;99.90;;;;;;6305073;22;20006;-61
2021/07/26 12:22:12;;;;;;;2.67;2.13;;;27.30;99.90;;;;;;6305482;22;20007;-62
2021/07/26 12:24:48;;;;;;;3.00;2.28;;;27.40;99.90;;;;;;6306328;22;20006;-61
2021/07/26 12:27:31;;;;;;;3.33;1.95;;;27.40;99.90;;;;;;6305685;22;19999;-62
2021/07/26 12:30:03;;;;;;;3.90;1.90;;;27.10;99.90;;;;;;6303985;22;20076;-61
2021/07/26 12:32:29;;;;;;;5.53;2.03;;;27.10;99.90;;;;;;6305293;22;20066;-62
2021/07/26 12:35:12;;;;;;;2.83;1.85;;;27.10;99.90;;;;;;6305737;22;20004;-60
2021/07/26 12:37:38;;;;;;;3.55;1.63;;;27.10;99.90;;;;;;6303934;22;19999;-61
2021/07/26 12:40:16;;;;;;;2.33;2.00;;;27.10;99.90;;;;;;6304295;22;20018;-62
2021/07/26 12:42:43;;;;;;;5.88;2.15;;;27.10;99.90;;;;;;6304864;22;20062;-61
2021/07/26 12:45:23;;;;;;;7.15;2.00;;;27.00;99.90;;;;;;6304814;22;20435;-59
2021/07/26 12:47:49;;;;;;;11.32;2.42;;;26.90;99.90;;;;;;6304049;22;20070;-60
2021/07/26 12:50:16;;;;;;;4.53;2.63;;;26.20;99.90;;;;;;6304940;22;20390;-59
2021/07/26 12:52:41;;;;;;;2.33;1.92;;;26.10;99.90;;;;;;6305212;22;20042;-61
2021/07/26 12:55:07;;;;;;;3.03;1.70;;;26.30;99.90;;;;;;6305352;22;19995;-62